Time;durP1;ratioP1;P1;durP2;ratioP2;P2;SDS_P1;SDS_P2;PMS_P1;PMS_P2;Temp;Humidity;BMP_temperature;BMP_pressure;BME280_temperature;BME280_humidity;BME280_pressure;Samples;Min_cycle;Max_cycle;Signal;HPM_P1;HPM_P2
2023/07/15 00:01:34;;;;;;;3.83;3.50;;;27.60;51.70;;;;;;5026473;28;20724;-75
2023/07/15 00:04:08;;;;;;;4.40;4.10;;;27.60;51.60;;;;;;5029799;28;20932;-74
2023/07/15 00:06:37;;;;;;;4.20;3.80;;;27.60;51.40;;;;;;5028488;28;20423;-75
2023/07/15 00:09:06;;;;;;;4.90;3.90;;;27.60;51.20;;;;;;5013469;28;20451;-75
2023/07/15 00:11:43;;;;;;;3.90;3.53;;;27.60;51.00;;;;;;5012354;28;20213;-75
2023/07/15 00:14:23;;;;;;;3.70;3.40;;;27.60;50.90;;;;;;5025981;28;20412;-75
2023/07/15 00:16:50;;;;;;;3.50;3.20;;;27.50;51.50;;;;;;5030690;28;20457;-75
2023/07/15 00:19:20;;;;;;;3.47;3.27;;;27.60;51.40;;;;;;5032319;28;20447;-75
2023/07/15 00:21:52;;;;;;;4.00;3.70;;;27.50;51.40;;;;;;5030860;28;20435;-75
2023/07/15 00:24:23;;;;;;;3.83;3.53;;;27.50;51.60;;;;;;5015122;28;20514;-75
2023/07/15 00:26:49;;;;;;;3.80;3.23;;;27.50;51.60;;;;;;5015043;28;20468;-75
2023/07/15 00:29:19;;;;;;;4.30;3.80;;;27.50;51.60;;;;;;4998691;28;20435;-75
2023/07/15 00:31:47;;;;;;;3.93;3.63;;;27.50;51.70;;;;;;5031390;28;20415;-75
2023/07/15 00:34:13;;;;;;;4.10;3.80;;;27.50;51.60;;;;;;5027841;28;21054;-75
2023/07/15 00:36:41;;;;;;;3.70;3.40;;;27.50;51.70;;;;;;5031327;28;20435;-75
2023/07/15 00:39:08;;;;;;;3.80;3.50;;;27.50;51.80;;;;;;5013891;28;20439;-75
2023/07/15 00:41:35;;;;;;;4.00;3.70;;;27.50;51.70;;;;;;4995532;28;20533;-75
2023/07/15 00:44:06;;;;;;;3.97;3.67;;;27.50;51.80;;;;;;5018915;28;20416;-75
2023/07/15 00:47:00;;;;;;;4.10;3.70;;;27.50;51.60;;;;;;5011952;28;20420;-75
2023/07/15 00:49:36;;;;;;;4.03;3.67;;;27.40;51.40;;;;;;4996022;28;20881;-75
2023/07/15 00:52:10;;;;;;;5.10;3.97;;;27.40;51.40;;;;;;5022874;28;20418;-75
2023/07/15 00:54:57;;;;;;;4.10;3.70;;;27.40;51.20;;;;;;5030578;28;20936;-75
2023/07/15 00:57:26;;;;;;;4.93;3.60;;;27.40;51.50;;;;;;4998750;28;20526;-75
2023/07/15 00:59:58;;;;;;;3.90;3.60;;;27.40;51.40;;;;;;5015103;28;20423;-75
2023/07/15 01:02:28;;;;;;;3.57;3.27;;;27.40;51.20;;;;;;4998526;28;20447;-75
2023/07/15 01:04:54;;;;;;;4.43;3.63;;;27.40;51.40;;;;;;5014251;28;20435;-75
2023/07/15 01:07:21;;;;;;;3.90;3.60;;;27.40;51.60;;;;;;5030928;28;20800;-75
2023/07/15 01:09:47;;;;;;;4.50;4.10;;;27.40;51.70;;;;;;5030585;28;21310;-75
2023/07/15 01:12:13;;;;;;;4.77;3.63;;;27.40;51.50;;;;;;5030898;28;20439;-75
2023/07/15 01:14:41;;;;;;;4.13;3.83;;;27.30;51.60;;;;;;5014128;28;20471;-75
2023/07/15 01:17:07;;;;;;;4.00;3.70;;;27.30;51.40;;;;;;5030217;28;20444;-75
2023/07/15 01:19:34;;;;;;;3.90;3.60;;;27.30;51.40;;;;;;4998140;28;20416;-75
2023/07/15 01:22:01;;;;;;;3.97;3.67;;;27.30;51.50;;;;;;5013819;28;20216;-75
2023/07/15 01:24:35;;;;;;;4.60;4.20;;;27.30;51.70;;;;;;5014305;28;20415;-75
2023/07/15 01:27:09;;;;;;;3.80;3.50;;;27.30;51.50;;;;;;5014112;28;20552;-75
2023/07/15 01:29:37;;;;;;;4.23;3.53;;;27.20;51.50;;;;;;5014091;28;20964;-75
2023/07/15 01:32:03;;;;;;;4.20;3.70;;;27.20;51.60;;;;;;5030338;28;20400;-75
2023/07/15 01:34:36;;;;;;;4.07;3.77;;;27.30;51.70;;;;;;5031464;28;20507;-75
2023/07/15 01:37:03;;;;;;;4.27;3.87;;;27.30;51.70;;;;;;5030256;28;20789;-75
2023/07/15 01:39:29;;;;;;;3.90;3.60;;;27.20;51.70;;;;;;5030145;28;20938;-75
2023/07/15 01:41:55;;;;;;;4.20;3.33;;;27.20;51.50;;;;;;5013940;28;20450;-75
2023/07/15 01:44:26;;;;;;;3.93;3.50;;;27.20;51.60;;;;;;5030140;28;20424;-75
2023/07/15 01:46:55;;;;;;;5.60;3.67;;;27.20;51.50;;;;;;5013831;28;20451;-75
2023/07/15 01:49:21;;;;;;;3.50;3.30;;;27.20;51.70;;;;;;5031202;28;20400;-75
2023/07/15 01:51:47;;;;;;;3.90;3.50;;;27.20;51.60;;;;;;5029733;28;20989;-75
2023/07/15 01:54:13;;;;;;;4.20;3.80;;;27.20;51.50;;;;;;5030047;28;20411;-75
2023/07/15 01:56:41;;;;;;;3.80;3.40;;;27.20;51.70;;;;;;5013915;28;20435;-75
2023/07/15 01:59:10;;;;;;;3.77;3.50;;;27.20;51.70;;;;;;5013313;28;20456;-75
2023/07/15 02:01:38;;;;;;;3.90;3.60;;;27.20;51.70;;;;;;5013514;28;20802;-76
2023/07/15 02:04:07;;;;;;;4.80;3.50;;;27.10;51.80;;;;;;5013302;28;20534;-75
2023/07/15 02:06:33;;;;;;;4.13;3.40;;;27.10;51.70;;;;;;5031103;28;20431;-75
2023/07/15 02:08:59;;;;;;;5.67;3.67;;;27.10;51.60;;;;;;5029666;28;20996;-75
2023/07/15 02:11:30;;;;;;;4.20;3.80;;;27.10;51.70;;;;;;5030957;28;20474;-75
2023/07/15 02:13:58;;;;;;;5.60;3.30;;;27.10;51.70;;;;;;5030657;28;20908;-75
2023/07/15 02:16:24;;;;;;;4.03;3.63;;;27.10;51.90;;;;;;5029346;28;20424;-75
2023/07/15 02:18:50;;;;;;;3.90;3.50;;;27.10;51.90;;;;;;5029379;28;20470;-75
2023/07/15 02:21:19;;;;;;;3.90;3.60;;;27.10;51.80;;;;;;5030796;28;20431;-75
2023/07/15 02:23:48;;;;;;;4.30;4.00;;;27.10;51.80;;;;;;5029638;28;20445;-75
2023/07/15 02:26:14;;;;;;;4.00;3.70;;;27.10;51.80;;;;;;5013324;28;20455;-75
2023/07/15 02:28:39;;;;;;;4.63;4.23;;;27.10;51.90;;;;;;5029334;28;20514;-75
2023/07/15 02:31:05;;;;;;;3.33;3.13;;;27.10;51.80;;;;;;5029158;28;20554;-75
2023/07/15 02:33:31;;;;;;;3.90;3.60;;;27.00;51.90;;;;;;5013182;28;20651;-75
2023/07/15 02:36:00;;;;;;;3.33;3.13;;;27.00;51.90;;;;;;5029346;28;20404;-75
2023/07/15 02:38:26;;;;;;;4.00;3.70;;;27.00;52.00;;;;;;5029209;28;20450;-75
2023/07/15 02:40:57;;;;;;;4.33;3.70;;;27.00;51.80;;;;;;5029260;28;20928;-75
2023/07/15 02:43:26;;;;;;;6.13;3.20;;;27.00;51.80;;;;;;5012728;28;20534;-75
2023/07/15 02:45:53;;;;;;;3.70;3.40;;;27.00;52.00;;;;;;5013134;28;20455;-75
2023/07/15 02:48:24;;;;;;;4.30;3.83;;;27.00;51.90;;;;;;5030293;28;20522;-75
2023/07/15 02:50:58;;;;;;;3.90;3.60;;;27.00;52.00;;;;;;4997262;28;20463;-75
2023/07/15 02:53:31;;;;;;;4.10;3.80;;;27.00;52.00;;;;;;5029074;28;20410;-75
2023/07/15 02:55:59;;;;;;;3.93;3.63;;;27.00;52.10;;;;;;5029058;28;20428;-75
2023/07/15 02:58:25;;;;;;;4.10;3.50;;;27.00;52.00;;;;;;5029204;28;20455;-75
2023/07/15 03:00:54;;;;;;;3.70;3.37;;;27.00;52.10;;;;;;5029271;28;20545;-75
2023/07/15 03:03:20;;;;;;;3.60;3.40;;;27.00;52.00;;;;;;5012697;28;20193;-75
2023/07/15 03:05:50;;;;;;;3.60;3.40;;;27.00;52.10;;;;;;5012756;28;20867;-75
2023/07/15 03:08:16;;;;;;;3.87;3.47;;;26.90;52.10;;;;;;5012559;28;20996;-75
2023/07/15 03:10:46;;;;;;;4.07;3.67;;;26.90;52.10;;;;;;5029455;28;20459;-75
2023/07/15 03:13:12;;;;;;;3.90;3.50;;;26.90;52.20;;;;;;5016673;28;20407;-75
2023/07/15 03:15:44;;;;;;;3.87;3.57;;;26.90;52.00;;;;;;5033196;28;20947;-75
2023/07/15 03:18:11;;;;;;;4.20;3.90;;;26.90;52.10;;;;;;5032676;28;20451;-75
2023/07/15 03:20:37;;;;;;;3.83;3.53;;;26.90;52.10;;;;;;5016254;28;20455;-75
2023/07/15 03:23:03;;;;;;;4.03;3.73;;;26.90;52.20;;;;;;5032667;28;20523;-75
2023/07/15 03:25:32;;;;;;;4.10;3.80;;;26.90;52.00;;;;;;5033211;28;20414;-75
2023/07/15 03:27:59;;;;;;;3.83;3.50;;;26.80;51.90;;;;;;5016424;28;20967;-75
2023/07/15 03:30:25;;;;;;;4.00;3.67;;;26.80;51.90;;;;;;5008063;28;20834;-75
2023/07/15 03:32:56;;;;;;;3.90;3.60;;;26.80;52.00;;;;;;5014177;28;20397;-75
2023/07/15 03:35:25;;;;;;;3.93;3.53;;;26.80;51.90;;;;;;5012970;28;20635;-76
2023/07/15 03:37:54;;;;;;;3.60;3.40;;;26.80;52.00;;;;;;5012575;28;20482;-75
2023/07/15 03:40:21;;;;;;;3.80;3.50;;;26.80;52.10;;;;;;5019819;28;20451;-75
2023/07/15 03:42:49;;;;;;;3.97;3.67;;;26.80;52.10;;;;;;5015126;28;20998;-75
2023/07/15 03:45:15;;;;;;;4.17;3.87;;;26.80;52.10;;;;;;5032364;28;20422;-75
2023/07/15 03:47:44;;;;;;;3.80;3.50;;;26.80;52.10;;;;;;5014456;28;20569;-75
2023/07/15 03:50:10;;;;;;;4.10;3.80;;;26.80;52.00;;;;;;5030868;28;20490;-75
2023/07/15 03:52:37;;;;;;;3.83;3.50;;;26.80;52.00;;;;;;5015011;28;20469;-75
2023/07/15 03:55:05;;;;;;;4.00;3.47;;;26.70;52.10;;;;;;5015125;28;20435;-75
2023/07/15 03:57:31;;;;;;;3.30;3.00;;;26.70;52.10;;;;;;5014917;28;20458;-75
2023/07/15 03:59:57;;;;;;;5.13;4.20;;;26.70;52.10;;;;;;5031043;28;20422;-75
2023/07/15 04:02:23;;;;;;;3.50;3.20;;;26.70;52.10;;;;;;5032564;28;20411;-75
2023/07/15 04:04:49;;;;;;;5.07;4.00;;;26.70;52.20;;;;;;5031075;28;20602;-75
2023/07/15 04:07:16;;;;;;;3.70;3.40;;;26.70;52.20;;;;;;5031074;28;20435;-75
2023/07/15 04:09:49;;;;;;;3.87;3.43;;;26.70;52.20;;;;;;5031036;28;20970;-75
2023/07/15 04:12:15;;;;;;;4.10;3.80;;;26.70;52.20;;;;;;5031591;28;20496;-75
2023/07/15 04:14:41;;;;;;;4.33;4.00;;;26.70;52.30;;;;;;5031031;28;20410;-75
2023/07/15 04:17:14;;;;;;;4.00;3.60;;;26.70;52.30;;;;;;5030535;28;20480;-75
2023/07/15 04:19:44;;;;;;;5.97;3.80;;;26.60;52.10;;;;;;5030927;28;20426;-75
2023/07/15 04:22:11;;;;;;;4.03;3.77;;;26.60;52.30;;;;;;4993587;28;20428;-75
2023/07/15 04:24:37;;;;;;;3.40;3.20;;;26.60;52.40;;;;;;5015535;28;20443;-75
2023/07/15 04:27:05;;;;;;;4.00;3.70;;;26.60;52.40;;;;;;5014705;28;20450;-75
2023/07/15 04:29:31;;;;;;;3.77;3.37;;;26.60;52.30;;;;;;5030679;28;20424;-75
2023/07/15 04:32:02;;;;;;;3.90;3.60;;;26.60;52.40;;;;;;5009747;28;20502;-75
2023/07/15 04:34:28;;;;;;;4.70;3.83;;;26.60;52.40;;;;;;5011361;28;20424;-75
2023/07/15 04:36:54;;;;;;;4.10;3.80;;;26.60;52.40;;;;;;5011484;28;20546;-75
2023/07/15 04:39:27;;;;;;;3.93;3.60;;;26.60;52.50;;;;;;5010986;28;20425;-75
2023/07/15 04:41:55;;;;;;;4.30;3.90;;;26.60;52.40;;;;;;5013412;28;20424;-75
2023/07/15 04:44:21;;;;;;;3.93;3.63;;;26.60;52.50;;;;;;5029995;28;20466;-75
2023/07/15 04:46:47;;;;;;;3.83;3.47;;;26.60;52.50;;;;;;5020061;28;20447;-75
2023/07/15 04:49:13;;;;;;;3.30;3.00;;;26.60;52.50;;;;;;5030096;28;20577;-75
2023/07/15 04:51:39;;;;;;;3.73;3.53;;;26.60;52.60;;;;;;5030394;28;20681;-75
2023/07/15 04:54:05;;;;;;;4.20;3.80;;;26.50;52.60;;;;;;4997746;28;20506;-75
2023/07/15 04:56:33;;;;;;;3.50;3.20;;;26.50;52.60;;;;;;5014357;28;20493;-75
2023/07/15 04:58:59;;;;;;;4.40;3.37;;;26.50;52.60;;;;;;5014024;28;20936;-75
2023/07/15 05:01:25;;;;;;;5.03;3.90;;;26.50;52.70;;;;;;5030202;28;20443;-75
2023/07/15 05:03:56;;;;;;;4.43;3.73;;;26.50;52.60;;;;;;5030425;28;20172;-75
2023/07/15 05:06:22;;;;;;;4.23;3.53;;;26.50;52.70;;;;;;5030899;28;20932;-75
2023/07/15 05:08:48;;;;;;;6.00;3.70;;;26.50;52.70;;;;;;5013784;28;20458;-75
2023/07/15 05:11:17;;;;;;;3.73;3.43;;;26.50;52.80;;;;;;5013963;28;20436;-75
2023/07/15 05:13:43;;;;;;;4.10;3.80;;;26.50;52.80;;;;;;5029409;28;20470;-75
2023/07/15 05:16:09;;;;;;;3.70;3.40;;;26.50;52.80;;;;;;5031068;28;20932;-75
2023/07/15 05:18:37;;;;;;;4.20;3.90;;;26.50;52.80;;;;;;5031138;28;20428;-75
2023/07/15 05:21:04;;;;;;;4.00;3.70;;;26.50;52.80;;;;;;4996878;28;20471;-75
2023/07/15 05:23:31;;;;;;;4.10;3.80;;;26.50;52.80;;;;;;5030414;28;20408;-75
2023/07/15 05:26:00;;;;;;;3.70;3.40;;;26.50;52.80;;;;;;5100284;22;20510;-75
2023/07/15 05:28:30;;;;;;;4.30;3.53;;;26.40;52.80;;;;;;4982267;28;20490;-75
2023/07/15 05:31:03;;;;;;;3.97;3.60;;;26.40;52.80;;;;;;5009851;28;20807;-75
2023/07/15 05:33:34;;;;;;;3.93;3.63;;;26.40;52.80;;;;;;4992508;28;21039;-75
2023/07/15 05:36:03;;;;;;;3.90;3.60;;;26.40;52.80;;;;;;5009561;28;20936;-75
2023/07/15 05:38:41;;;;;;;8.37;4.10;;;26.40;52.90;;;;;;4992767;28;20475;-75
2023/07/15 05:41:13;;;;;;;3.73;3.43;;;26.40;52.90;;;;;;4976443;28;20554;-75
2023/07/15 05:43:42;;;;;;;3.73;3.47;;;26.40;52.90;;;;;;5009022;28;20475;-75
2023/07/15 05:46:08;;;;;;;3.93;3.63;;;26.40;52.90;;;;;;5009060;28;20443;-75
2023/07/15 05:48:33;;;;;;;3.87;3.57;;;26.40;52.90;;;;;;5010366;28;20311;-75
2023/07/15 05:51:04;;;;;;;4.10;3.77;;;26.40;53.00;;;;;;4961004;28;20433;-74
2023/07/15 05:53:33;;;;;;;6.00;3.60;;;26.40;53.00;;;;;;4976213;28;20460;-75
2023/07/15 05:56:01;;;;;;;4.83;3.67;;;26.40;53.50;;;;;;5013902;28;20469;-75
2023/07/15 05:58:29;;;;;;;3.90;3.60;;;26.40;53.00;;;;;;5024743;28;20452;-75
2023/07/15 06:00:55;;;;;;;3.77;3.47;;;26.40;53.00;;;;;;4970989;28;20506;-75
2023/07/15 06:03:27;;;;;;;3.57;3.27;;;26.40;53.10;;;;;;4981637;28;20476;-75
2023/07/15 06:06:07;;;;;;;3.70;3.40;;;26.40;53.10;;;;;;4986868;28;20877;-75
2023/07/15 06:08:35;;;;;;;4.63;3.60;;;26.40;53.10;;;;;;4958694;28;20444;-74
2023/07/15 06:11:03;;;;;;;3.90;3.60;;;26.40;53.10;;;;;;5009656;28;20420;-74
2023/07/15 06:13:32;;;;;;;3.73;3.53;;;26.40;53.20;;;;;;4977423;28;20408;-74
2023/07/15 06:16:00;;;;;;;4.07;3.77;;;26.40;53.20;;;;;;4991693;28;20490;-74
2023/07/15 06:18:26;;;;;;;4.00;3.80;;;26.40;53.10;;;;;;4990793;28;20444;-74
2023/07/15 06:20:55;;;;;;;4.00;3.70;;;26.40;53.30;;;;;;4990842;28;20454;-74
2023/07/15 06:23:23;;;;;;;3.50;3.20;;;26.40;53.30;;;;;;5006899;28;20470;-74
2023/07/15 06:25:49;;;;;;;4.03;3.63;;;26.40;53.30;;;;;;4974076;28;20436;-74
2023/07/15 06:28:19;;;;;;;4.00;3.70;;;26.40;53.20;;;;;;4989323;28;20496;-75
2023/07/15 06:30:48;;;;;;;4.40;3.70;;;26.40;53.30;;;;;;5007288;28;20812;-74
2023/07/15 06:33:17;;;;;;;4.30;3.57;;;26.40;53.40;;;;;;5006020;28;20491;-75
2023/07/15 06:35:43;;;;;;;4.20;3.90;;;26.40;53.30;;;;;;4990254;28;20404;-74
2023/07/15 06:38:12;;;;;;;3.63;3.30;;;26.40;53.30;;;;;;4974470;28;20448;-74
2023/07/15 06:40:38;;;;;;;3.53;3.23;;;26.40;53.40;;;;;;4973644;28;20476;-74
2023/07/15 06:43:04;;;;;;;4.20;3.90;;;26.40;53.40;;;;;;4989311;28;21046;-74
2023/07/15 06:45:34;;;;;;;3.70;3.50;;;26.40;53.40;;;;;;5005617;28;20443;-73
2023/07/15 06:48:04;;;;;;;3.70;3.40;;;26.40;53.40;;;;;;5004919;28;20451;-73
2023/07/15 06:50:33;;;;;;;4.00;3.70;;;26.40;53.40;;;;;;5003138;28;21342;-73
2023/07/15 06:52:58;;;;;;;4.03;3.60;;;26.40;53.40;;;;;;4988573;28;20486;-73
2023/07/15 06:55:25;;;;;;;4.00;3.60;;;26.40;53.50;;;;;;4974234;28;20424;-73
2023/07/15 06:57:50;;;;;;;3.77;3.47;;;26.40;53.50;;;;;;5010036;28;20457;-73
2023/07/15 07:00:19;;;;;;;4.27;3.10;;;26.40;53.60;;;;;;5001312;28;20460;-73
2023/07/15 07:02:47;;;;;;;3.77;3.40;;;26.50;53.70;;;;;;5006177;28;21102;-73
2023/07/15 07:05:16;;;;;;;3.50;3.30;;;26.40;53.70;;;;;;4973314;28;20440;-73
2023/07/15 07:07:44;;;;;;;3.70;3.40;;;26.50;53.80;;;;;;4989034;28;20445;-73
2023/07/15 07:10:11;;;;;;;4.33;3.90;;;26.50;53.90;;;;;;5005420;28;20929;-73
2023/07/15 07:12:39;;;;;;;3.60;3.30;;;26.50;54.00;;;;;;5006434;28;20425;-73
2023/07/15 07:15:06;;;;;;;3.73;3.40;;;26.50;54.00;;;;;;5007667;28;20627;-73
2023/07/15 07:17:37;;;;;;;3.80;3.40;;;26.50;54.10;;;;;;4989558;28;20451;-73
2023/07/15 07:20:08;;;;;;;3.20;3.00;;;26.50;54.10;;;;;;5006527;28;20468;-74
2023/07/15 07:22:34;;;;;;;3.90;3.60;;;26.60;54.20;;;;;;5006472;28;20834;-74
2023/07/15 07:25:00;;;;;;;4.00;3.70;;;26.60;54.30;;;;;;4973876;28;20984;-73
2023/07/15 07:27:26;;;;;;;3.27;3.07;;;26.60;54.90;;;;;;5005992;28;20551;-73
2023/07/15 07:29:58;;;;;;;3.60;3.30;;;26.60;54.30;;;;;;4989080;28;21110;-73
2023/07/15 07:32:26;;;;;;;3.40;3.17;;;26.60;54.30;;;;;;5006507;28;20420;-73
2023/07/15 07:34:53;;;;;;;4.53;3.80;;;26.60;54.30;;;;;;5006641;28;20400;-74
2023/07/15 07:37:19;;;;;;;4.20;3.63;;;26.60;54.20;;;;;;5005995;28;20453;-74
2023/07/15 07:39:48;;;;;;;3.47;3.20;;;26.60;54.30;;;;;;5005819;28;20432;-73
2023/07/15 07:42:14;;;;;;;3.43;3.13;;;26.60;54.30;;;;;;5004991;28;20455;-73
2023/07/15 07:44:42;;;;;;;3.20;3.00;;;26.60;54.40;;;;;;4996234;28;20409;-73
2023/07/15 07:47:08;;;;;;;4.07;3.77;;;26.60;54.40;;;;;;4963218;28;20446;-73
2023/07/15 07:49:37;;;;;;;5.30;3.40;;;26.60;54.50;;;;;;4963523;28;20230;-73
2023/07/15 07:52:03;;;;;;;3.87;3.57;;;26.60;54.50;;;;;;4991357;28;20518;-73
2023/07/15 07:54:32;;;;;;;4.23;3.23;;;26.60;54.50;;;;;;5003531;28;20422;-73
2023/07/15 07:57:00;;;;;;;10.47;3.47;;;26.70;54.60;;;;;;5000122;28;20448;-73
2023/07/15 07:59:28;;;;;;;3.63;3.37;;;26.70;54.70;;;;;;5008186;28;21158;-74
2023/07/15 08:01:54;;;;;;;4.07;3.40;;;26.70;54.70;;;;;;4992845;28;20452;-73
2023/07/15 08:04:23;;;;;;;3.63;3.33;;;26.70;54.70;;;;;;4973677;28;20547;-73
2023/07/15 08:06:49;;;;;;;3.80;3.40;;;26.70;54.80;;;;;;4980788;28;20437;-74
2023/07/15 08:12:02;;;;;;;5.07;3.00;;;26.70;54.70;;;;;;5008721;28;20216;-76
2023/07/15 08:14:28;;;;;;;5.20;3.63;;;26.60;55.20;;;;;;5011069;28;20408;-76
2023/07/15 08:16:54;;;;;;;3.80;3.40;;;26.30;56.40;;;;;;4994580;28;20510;-74
2023/07/15 08:19:20;;;;;;;4.10;3.80;;;26.20;56.80;;;;;;4993795;28;20910;-75
2023/07/15 08:21:49;;;;;;;10.17;3.70;;;26.20;57.70;;;;;;5011160;28;20562;-76
2023/07/15 08:24:17;;;;;;;7.07;2.93;;;26.20;57.50;;;;;;5010740;28;20527;-74
2023/07/15 08:26:47;;;;;;;3.47;3.17;;;26.30;57.20;;;;;;5010249;28;20511;-74
2023/07/15 08:29:13;;;;;;;7.20;4.50;;;26.50;56.70;;;;;;4994334;28;20480;-74
2023/07/15 08:31:40;;;;;;;5.90;3.37;;;26.60;56.40;;;;;;4994307;28;20448;-73
2023/07/15 08:34:06;;;;;;;4.53;3.67;;;26.70;56.10;;;;;;5010122;28;21263;-73
2023/07/15 08:36:36;;;;;;;3.90;3.27;;;26.80;56.10;;;;;;4977858;28;20436;-75
2023/07/15 08:39:04;;;;;;;4.20;3.80;;;26.90;56.00;;;;;;4994394;28;20534;-74
2023/07/15 08:41:35;;;;;;;4.10;3.70;;;26.90;55.90;;;;;;4993710;28;20475;-75
2023/07/15 08:44:01;;;;;;;4.17;3.50;;;26.90;55.70;;;;;;4977568;28;20448;-74
2023/07/15 08:46:30;;;;;;;4.00;3.70;;;27.00;55.70;;;;;;5010455;28;20531;-76
2023/07/15 08:48:57;;;;;;;3.50;3.20;;;26.90;55.60;;;;;;4992147;28;20459;-74
2023/07/15 08:51:33;;;;;;;3.33;3.00;;;27.00;55.70;;;;;;4993430;28;20432;-74
2023/07/15 08:54:06;;;;;;;4.23;3.70;;;27.00;56.10;;;;;;4991980;28;20587;-74
2023/07/15 08:56:35;;;;;;;7.27;3.70;;;27.00;55.50;;;;;;4975965;28;20432;-75
2023/07/15 08:59:06;;;;;;;3.53;3.23;;;27.00;55.60;;;;;;4992181;28;20444;-76
2023/07/15 09:01:38;;;;;;;3.50;3.30;;;27.00;55.60;;;;;;4960691;28;20574;-76
2023/07/15 09:04:09;;;;;;;4.27;3.97;;;27.00;55.60;;;;;;4976987;28;20527;-76
2023/07/15 09:06:38;;;;;;;4.10;3.60;;;27.00;55.70;;;;;;4993589;28;20432;-76
2023/07/15 09:09:06;;;;;;;3.83;3.53;;;27.00;55.60;;;;;;5008146;28;20450;-76
2023/07/15 09:11:42;;;;;;;5.47;3.70;;;27.00;55.60;;;;;;4992568;28;20478;-76
2023/07/15 09:14:14;;;;;;;3.53;3.23;;;27.00;55.70;;;;;;4992779;28;20448;-76
2023/07/15 09:16:40;;;;;;;3.80;3.50;;;27.00;55.80;;;;;;5010898;28;20503;-76
2023/07/15 09:19:06;;;;;;;4.17;3.70;;;27.00;56.10;;;;;;4992550;28;20448;-77
2023/07/15 09:21:37;;;;;;;3.97;2.97;;;27.00;56.60;;;;;;5008938;28;20979;-76
2023/07/15 09:24:05;;;;;;;5.23;3.57;;;27.00;56.90;;;;;;4993075;28;20455;-76
2023/07/15 09:26:34;;;;;;;3.40;3.20;;;27.00;57.20;;;;;;4989685;28;20620;-76
2023/07/15 09:29:03;;;;;;;3.90;3.60;;;27.00;57.40;;;;;;4973846;28;20447;-76
2023/07/15 09:31:29;;;;;;;3.97;3.67;;;27.00;57.90;;;;;;4991505;28;20398;-76
2023/07/15 09:34:06;;;;;;;3.90;3.30;;;27.00;58.10;;;;;;4989816;28;20489;-76
2023/07/15 09:36:34;;;;;;;3.80;3.50;;;27.00;58.30;;;;;;5009128;28;20435;-76
2023/07/15 09:39:15;;;;;;;5.80;4.27;;;27.00;58.20;;;;;;4992280;28;20526;-75
2023/07/15 09:41:45;;;;;;;3.87;3.57;;;27.00;58.40;;;;;;4991752;28;20976;-76
2023/07/15 09:44:11;;;;;;;3.90;3.60;;;27.00;58.30;;;;;;4974459;28;20408;-76
2023/07/15 09:46:39;;;;;;;4.07;3.77;;;27.00;58.50;;;;;;4990973;28;20444;-76
2023/07/15 09:49:05;;;;;;;4.57;3.60;;;27.00;58.50;;;;;;4975208;28;20467;-76
2023/07/15 09:51:33;;;;;;;4.23;3.90;;;27.00;59.10;;;;;;5009885;28;20430;-76
2023/07/15 09:54:01;;;;;;;4.10;3.70;;;27.00;59.20;;;;;;4975517;28;20432;-76
2023/07/15 09:56:34;;;;;;;3.87;3.53;;;27.00;59.10;;;;;;4991334;28;20456;-73
2023/07/15 09:59:15;;;;;;;3.57;3.23;;;27.00;59.10;;;;;;4990227;28;20448;-73
2023/07/15 10:01:47;;;;;;;4.43;3.30;;;27.00;59.70;;;;;;4992499;28;20960;-73
2023/07/15 10:04:21;;;;;;;3.77;3.47;;;27.00;59.90;;;;;;4958823;28;20424;-73
2023/07/15 10:06:54;;;;;;;3.70;3.40;;;27.00;60.20;;;;;;4992526;28;20424;-73
2023/07/15 10:09:23;;;;;;;3.90;3.70;;;27.00;60.70;;;;;;5009765;28;20425;-73
2023/07/15 10:11:51;;;;;;;3.40;3.10;;;27.00;60.40;;;;;;4976065;28;20452;-73
2023/07/15 10:14:19;;;;;;;3.43;3.03;;;27.00;60.70;;;;;;4991831;28;20424;-73
2023/07/15 10:16:45;;;;;;;4.30;3.90;;;27.00;62.20;;;;;;4991644;28;21018;-73
2023/07/15 10:19:37;;;;;;;3.50;3.23;;;27.00;62.80;;;;;;5008234;28;20444;-73
2023/07/15 10:22:03;;;;;;;3.43;3.13;;;27.00;63.00;;;;;;4990245;28;20340;-74
2023/07/15 10:24:33;;;;;;;4.73;3.40;;;26.90;62.60;;;;;;5008278;28;20466;-73
2023/07/15 10:27:10;;;;;;;4.10;3.70;;;26.90;62.90;;;;;;5008073;28;20850;-74
2023/07/15 10:29:40;;;;;;;4.93;3.70;;;26.90;63.30;;;;;;5009799;28;20927;-72
2023/07/15 10:32:16;;;;;;;4.37;3.33;;;26.90;63.10;;;;;;4991438;28;20490;-72
2023/07/15 10:34:51;;;;;;;4.37;3.53;;;26.90;63.10;;;;;;4991611;28;20448;-72
2023/07/15 10:37:19;;;;;;;4.00;3.57;;;26.90;63.30;;;;;;4991503;28;21207;-77
2023/07/15 10:39:46;;;;;;;3.60;3.30;;;26.90;62.30;;;;;;5009171;28;20452;-78
2023/07/15 10:42:13;;;;;;;4.60;3.40;;;26.90;63.30;;;;;;5009455;28;20420;-73
2023/07/15 10:44:44;;;;;;;3.97;3.57;;;26.90;62.70;;;;;;5009224;28;20572;-73
2023/07/15 10:47:15;;;;;;;3.90;3.50;;;26.90;62.90;;;;;;5009119;28;20768;-73
2023/07/15 10:49:44;;;;;;;3.43;3.13;;;26.90;63.00;;;;;;4992477;28;20865;-72
2023/07/15 10:52:23;;;;;;;6.30;3.70;;;26.90;63.40;;;;;;4991945;28;20454;-73
2023/07/15 10:54:53;;;;;;;4.13;3.33;;;26.90;63.50;;;;;;4991615;28;20493;-71
2023/07/15 10:57:19;;;;;;;3.93;3.53;;;26.90;63.40;;;;;;5007920;28;20515;-73
2023/07/15 10:59:49;;;;;;;3.93;3.53;;;26.90;62.80;;;;;;4975071;28;20468;-73
2023/07/15 11:02:15;;;;;;;3.53;3.23;;;26.90;62.80;;;;;;5009505;28;20511;-73
2023/07/15 11:04:41;;;;;;;3.93;3.40;;;26.90;64.00;;;;;;5007915;28;20559;-72
2023/07/15 11:07:10;;;;;;;4.10;3.80;;;26.90;64.10;;;;;;5008026;28;21080;-72
2023/07/15 11:09:40;;;;;;;3.53;3.20;;;26.90;64.30;;;;;;4975735;28;20972;-75
2023/07/15 11:12:08;;;;;;;4.90;4.50;;;26.90;63.80;;;;;;5006683;28;20728;-75
2023/07/15 11:14:39;;;;;;;5.70;4.23;;;26.90;63.40;;;;;;5007352;28;20423;-73
2023/07/15 11:17:06;;;;;;;4.20;3.50;;;26.90;64.00;;;;;;4992566;28;20487;-74
2023/07/15 11:19:35;;;;;;;4.17;3.37;;;26.90;64.80;;;;;;5009951;28;20469;-74
2023/07/15 11:22:08;;;;;;;5.43;3.80;;;27.00;65.50;;;;;;4992367;28;21043;-74
2023/07/15 11:24:37;;;;;;;4.33;3.77;;;27.00;65.40;;;;;;5010311;28;20509;-76
2023/07/15 11:27:05;;;;;;;3.80;3.50;;;27.00;66.10;;;;;;4993206;28;20530;-74
2023/07/15 11:29:31;;;;;;;3.70;3.40;;;27.00;66.30;;;;;;4976243;28;21051;-77
2023/07/15 11:32:03;;;;;;;3.90;3.60;;;27.00;66.60;;;;;;4962171;28;20432;-77
2023/07/15 11:34:31;;;;;;;4.03;3.67;;;27.00;66.40;;;;;;5012717;28;20455;-77
2023/07/15 11:37:02;;;;;;;3.77;3.47;;;27.00;66.50;;;;;;4963316;28;20415;-77
2023/07/15 11:39:31;;;;;;;4.43;3.53;;;27.10;66.90;;;;;;5011735;28;20430;-76
2023/07/15 11:41:57;;;;;;;4.03;3.73;;;27.10;66.80;;;;;;4995423;28;20444;-75
2023/07/15 11:44:28;;;;;;;3.70;3.40;;;27.10;67.10;;;;;;5012392;28;20407;-76
2023/07/15 11:46:56;;;;;;;4.57;4.17;;;27.10;66.90;;;;;;4995319;28;21039;-74
2023/07/15 11:49:24;;;;;;;4.33;4.03;;;27.10;66.50;;;;;;4979234;28;20436;-76
2023/07/15 11:51:55;;;;;;;4.10;3.80;;;27.10;67.40;;;;;;4995448;28;20456;-74
2023/07/15 11:54:24;;;;;;;4.77;3.67;;;27.20;67.30;;;;;;5010959;28;20909;-74
2023/07/15 11:56:53;;;;;;;3.97;3.67;;;27.10;66.40;;;;;;4995179;28;20504;-73
2023/07/15 11:59:31;;;;;;;3.77;3.47;;;27.20;66.80;;;;;;4994289;28;20464;-75
2023/07/15 12:01:59;;;;;;;3.60;3.40;;;27.20;66.80;;;;;;4978778;28;20456;-74
2023/07/15 12:04:31;;;;;;;4.40;4.10;;;27.20;66.50;;;;;;5011275;28;20444;-76
2023/07/15 12:07:04;;;;;;;4.23;3.93;;;27.20;67.00;;;;;;4989945;28;20446;-72
2023/07/15 12:09:33;;;;;;;4.07;3.77;;;27.20;67.00;;;;;;4992061;28;20461;-74
2023/07/15 12:11:59;;;;;;;4.53;3.53;;;27.20;66.90;;;;;;4990503;28;20443;-75
2023/07/15 12:14:26;;;;;;;3.90;3.60;;;27.20;66.70;;;;;;4991923;28;20425;-75
2023/07/15 12:16:59;;;;;;;4.27;3.67;;;27.20;66.80;;;;;;5011419;28;20544;-75
2023/07/15 12:19:31;;;;;;;4.83;4.33;;;27.30;66.90;;;;;;5011269;28;20543;-75
2023/07/15 12:21:57;;;;;;;3.90;3.60;;;27.30;66.90;;;;;;4992959;28;20464;-74
2023/07/15 12:24:23;;;;;;;4.20;3.80;;;27.30;66.90;;;;;;5010301;28;20448;-74
2023/07/15 12:26:49;;;;;;;3.47;3.17;;;27.30;67.00;;;;;;5011341;28;20416;-74
2023/07/15 12:29:17;;;;;;;4.10;3.80;;;27.30;67.00;;;;;;5010146;28;20613;-74
2023/07/15 12:31:46;;;;;;;3.60;3.30;;;27.30;67.20;;;;;;5010295;28;20491;-74
2023/07/15 12:34:12;;;;;;;3.40;3.10;;;27.30;67.00;;;;;;5011467;28;20436;-74
2023/07/15 12:36:41;;;;;;;3.33;3.03;;;27.30;67.20;;;;;;5011036;28;21069;-74
2023/07/15 12:39:09;;;;;;;3.70;3.40;;;27.30;67.80;;;;;;4990196;28;20275;-74
2023/07/15 12:41:35;;;;;;;3.97;3.63;;;27.30;66.60;;;;;;4990430;28;20511;-74
2023/07/15 12:44:01;;;;;;;3.77;3.47;;;27.30;66.60;;;;;;4973630;28;20472;-74
2023/07/15 12:46:29;;;;;;;4.20;3.90;;;27.30;66.80;;;;;;4990540;28;20428;-76
2023/07/15 12:48:58;;;;;;;3.80;3.50;;;27.30;66.30;;;;;;4992417;28;20833;-76
2023/07/15 12:51:24;;;;;;;3.60;3.33;;;27.30;66.60;;;;;;4991508;28;20417;-75
2023/07/15 12:53:50;;;;;;;4.13;3.73;;;27.30;66.70;;;;;;4991382;28;20417;-73
2023/07/15 12:56:16;;;;;;;4.23;3.87;;;27.30;66.70;;;;;;4977144;28;20413;-75
2023/07/15 12:58:44;;;;;;;3.80;3.50;;;27.30;66.70;;;;;;4994024;28;20531;-76